sensor_id;sensor_type;location;lat;lon;timestamp;pressure;altitude;pressure_sealevel;temperature;humidity
75157;BME280;63736;50.076;8.198;2023-05-07T00:01:50;99491.47;;;14.59;100.00
75157;BME280;63736;50.076;8.198;2023-05-07T00:04:15;99487.75;;;14.60;100.00
75157;BME280;63736;50.076;8.198;2023-05-07T00:06:41;99495.00;;;14.60;100.00
75157;BME280;63736;50.076;8.198;2023-05-07T00:09:06;99494.84;;;14.61;100.00
75157;BME280;63736;50.076;8.198;2023-05-07T00:11:32;99493.00;;;14.62;100.00
75157;BME280;63736;50.076;8.198;2023-05-07T00:13:58;99490.03;;;14.65;100.00
75157;BME280;63736;50.076;8.198;2023-05-07T00:16:23;99491.56;;;14.67;100.00
75157;BME280;63736;50.076;8.198;2023-05-07T00:18:48;99482.50;;;14.68;100.00
75157;BME280;63736;50.076;8.198;2023-05-07T00:21:13;99486.72;;;14.71;100.00
75157;BME280;63736;50.076;8.198;2023-05-07T00:23:39;99491.78;;;14.74;100.00
75157;BME280;63736;50.076;8.198;2023-05-07T00:26:04;99489.78;;;14.76;100.00
75157;BME280;63736;50.076;8.198;2023-05-07T00:28:29;99487.09;;;14.76;100.00
75157;BME280;63736;50.076;8.198;2023-05-07T00:30:55;99487.75;;;14.78;100.00
75157;BME280;63736;50.076;8.198;2023-05-07T00:33:21;99482.22;;;14.80;100.00
75157;BME280;63736;50.076;8.198;2023-05-07T00:35:47;99472.16;;;14.82;100.00
75157;BME280;63736;50.076;8.198;2023-05-07T00:38:12;99461.25;;;14.83;100.00
75157;BME280;63736;50.076;8.198;2023-05-07T00:40:37;99473.69;;;14.84;100.00
75157;BME280;63736;50.076;8.198;2023-05-07T00:43:03;99470.19;;;14.84;100.00
75157;BME280;63736;50.076;8.198;2023-05-07T00:45:28;99462.25;;;14.82;100.00
75157;BME280;63736;50.076;8.198;2023-05-07T00:47:55;99465.09;;;14.81;100.00
75157;BME280;63736;50.076;8.198;2023-05-07T00:50:21;99470.78;;;14.78;100.00
75157;BME280;63736;50.076;8.198;2023-05-07T00:52:47;99473.66;;;14.76;100.00
75157;BME280;63736;50.076;8.198;2023-05-07T00:55:12;99468.72;;;14.72;100.00
75157;BME280;63736;50.076;8.198;2023-05-07T00:57:40;99475.09;;;14.70;100.00
75157;BME280;63736;50.076;8.198;2023-05-07T01:00:07;99477.13;;;14.68;100.00
75157;BME280;63736;50.076;8.198;2023-05-07T01:02:34;99477.25;;;14.67;100.00
75157;BME280;63736;50.076;8.198;2023-05-07T01:05:01;99474.72;;;14.65;100.00
75157;BME280;63736;50.076;8.198;2023-05-07T01:07:27;99470.38;;;14.64;100.00
75157;BME280;63736;50.076;8.198;2023-05-07T01:09:52;99470.47;;;14.63;100.00
75157;BME280;63736;50.076;8.198;2023-05-07T01:12:18;99472.34;;;14.62;100.00
75157;BME280;63736;50.076;8.198;2023-05-07T01:14:44;99471.50;;;14.62;100.00
75157;BME280;63736;50.076;8.198;2023-05-07T01:17:09;99469.81;;;14.61;100.00
75157;BME280;63736;50.076;8.198;2023-05-07T01:19:34;99475.34;;;14.59;100.00
75157;BME280;63736;50.076;8.198;2023-05-07T01:22:07;99468.94;;;14.60;100.00
75157;BME280;63736;50.076;8.198;2023-05-07T01:24:34;99474.19;;;14.62;100.00
75157;BME280;63736;50.076;8.198;2023-05-07T01:27:01;99470.47;;;14.63;100.00
75157;BME280;63736;50.076;8.198;2023-05-07T01:29:26;99470.22;;;14.66;100.00
75157;BME280;63736;50.076;8.198;2023-05-07T01:31:52;99468.34;;;14.66;100.00
75157;BME280;63736;50.076;8.198;2023-05-07T01:34:18;99456.44;;;14.69;100.00
75157;BME280;63736;50.076;8.198;2023-05-07T01:36:46;99459.50;;;14.74;100.00
75157;BME280;63736;50.076;8.198;2023-05-07T01:39:12;99456.03;;;14.82;100.00
75157;BME280;63736;50.076;8.198;2023-05-07T01:41:37;99448.16;;;14.89;100.00
75157;BME280;63736;50.076;8.198;2023-05-07T01:44:03;99443.84;;;14.96;100.00
75157;BME280;63736;50.076;8.198;2023-05-07T01:46:30;99433.47;;;15.01;100.00
75157;BME280;63736;50.076;8.198;2023-05-07T01:48:56;99435.66;;;15.06;100.00
75157;BME280;63736;50.076;8.198;2023-05-07T01:51:21;99437.00;;;15.10;100.00
75157;BME280;63736;50.076;8.198;2023-05-07T01:53:47;99442.91;;;15.13;100.00
75157;BME280;63736;50.076;8.198;2023-05-07T01:56:16;99441.75;;;15.16;100.00
75157;BME280;63736;50.076;8.198;2023-05-07T01:58:41;99445.81;;;15.20;100.00
75157;BME280;63736;50.076;8.198;2023-05-07T02:01:07;99444.66;;;15.23;100.00
75157;BME280;63736;50.076;8.198;2023-05-07T02:03:32;99434.41;;;15.26;100.00
75157;BME280;63736;50.076;8.198;2023-05-07T02:05:57;99434.59;;;15.33;100.00
75157;BME280;63736;50.076;8.198;2023-05-07T02:08:22;99441.34;;;15.37;100.00
75157;BME280;63736;50.076;8.198;2023-05-07T02:10:48;99437.47;;;15.40;100.00
75157;BME280;63736;50.076;8.198;2023-05-07T02:13:13;99438.00;;;15.43;100.00
75157;BME280;63736;50.076;8.198;2023-05-07T02:15:38;99450.13;;;15.47;100.00
75157;BME280;63736;50.076;8.198;2023-05-07T02:18:05;99440.88;;;15.50;99.74
75157;BME280;63736;50.076;8.198;2023-05-07T02:20:31;99440.75;;;15.51;99.34
75157;BME280;63736;50.076;8.198;2023-05-07T02:22:57;99446.13;;;15.51;99.65
75157;BME280;63736;50.076;8.198;2023-05-07T02:25:22;99436.38;;;15.50;99.72
75157;BME280;63736;50.076;8.198;2023-05-07T02:27:47;99439.22;;;15.49;99.96
75157;BME280;63736;50.076;8.198;2023-05-07T02:30:13;99442.75;;;15.49;100.00
75157;BME280;63736;50.076;8.198;2023-05-07T02:32:39;99449.13;;;15.48;100.00
75157;BME280;63736;50.076;8.198;2023-05-07T02:35:05;99443.91;;;15.47;100.00
75157;BME280;63736;50.076;8.198;2023-05-07T02:37:30;99444.38;;;15.42;100.00
75157;BME280;63736;50.076;8.198;2023-05-07T02:39:55;99444.56;;;15.41;100.00
75157;BME280;63736;50.076;8.198;2023-05-07T02:42:20;99442.88;;;15.40;100.00
75157;BME280;63736;50.076;8.198;2023-05-07T02:44:46;99437.66;;;15.38;100.00
75157;BME280;63736;50.076;8.198;2023-05-07T02:47:11;99441.50;;;15.35;100.00
75157;BME280;63736;50.076;8.198;2023-05-07T02:49:38;99447.06;;;15.34;100.00
75157;BME280;63736;50.076;8.198;2023-05-07T02:52:03;99446.53;;;15.30;100.00
75157;BME280;63736;50.076;8.198;2023-05-07T02:54:28;99440.63;;;15.27;100.00
75157;BME280;63736;50.076;8.198;2023-05-07T02:56:54;99445.19;;;15.26;100.00
75157;BME280;63736;50.076;8.198;2023-05-07T02:59:19;99450.56;;;15.26;100.00
75157;BME280;63736;50.076;8.198;2023-05-07T03:01:44;99449.03;;;15.24;100.00
75157;BME280;63736;50.076;8.198;2023-05-07T03:04:10;99449.19;;;15.22;100.00
75157;BME280;63736;50.076;8.198;2023-05-07T03:06:35;99444.97;;;15.19;100.00
75157;BME280;63736;50.076;8.198;2023-05-07T03:09:01;99440.94;;;15.15;100.00
75157;BME280;63736;50.076;8.198;2023-05-07T03:11:26;99453.38;;;15.16;100.00
75157;BME280;63736;50.076;8.198;2023-05-07T03:13:51;99447.31;;;15.14;100.00
75157;BME280;63736;50.076;8.198;2023-05-07T03:16:16;99441.22;;;15.12;100.00
75157;BME280;63736;50.076;8.198;2023-05-07T03:18:42;99444.94;;;15.11;100.00
75157;BME280;63736;50.076;8.198;2023-05-07T03:21:07;99433.31;;;15.11;100.00
75157;BME280;63736;50.076;8.198;2023-05-07T03:23:32;99437.88;;;15.10;100.00
75157;BME280;63736;50.076;8.198;2023-05-07T03:25:57;99428.28;;;15.08;100.00
75157;BME280;63736;50.076;8.198;2023-05-07T03:28:23;99425.75;;;15.06;100.00
75157;BME280;63736;50.076;8.198;2023-05-07T03:30:48;99423.19;;;15.04;100.00
75157;BME280;63736;50.076;8.198;2023-05-07T03:33:13;99422.19;;;15.06;100.00
75157;BME280;63736;50.076;8.198;2023-05-07T03:35:38;99417.16;;;15.02;100.00
75157;BME280;63736;50.076;8.198;2023-05-07T03:38:04;99426.22;;;15.01;100.00
75157;BME280;63736;50.076;8.198;2023-05-07T03:40:29;99421.66;;;15.02;100.00
75157;BME280;63736;50.076;8.198;2023-05-07T03:42:55;99420.00;;;15.01;100.00
75157;BME280;63736;50.076;8.198;2023-05-07T03:45:20;99419.31;;;14.99;100.00
75157;BME280;63736;50.076;8.198;2023-05-07T03:47:45;99424.69;;;14.99;100.00
75157;BME280;63736;50.076;8.198;2023-05-07T03:50:10;99426.69;;;14.97;100.00
75157;BME280;63736;50.076;8.198;2023-05-07T03:52:36;99428.53;;;14.96;100.00
75157;BME280;63736;50.076;8.198;2023-05-07T03:55:01;99422.50;;;14.94;100.00
75157;BME280;63736;50.076;8.198;2023-05-07T03:57:26;99429.72;;;14.94;100.00
75157;BME280;63736;50.076;8.198;2023-05-07T03:59:51;99431.56;;;14.93;100.00
75157;BME280;63736;50.076;8.198;2023-05-07T04:02:17;99434.25;;;14.93;100.00
75157;BME280;63736;50.076;8.198;2023-05-07T04:04:42;99434.91;;;14.95;100.00
75157;BME280;63736;50.076;8.198;2023-05-07T04:07:07;99438.63;;;14.94;100.00
75157;BME280;63736;50.076;8.198;2023-05-07T04:09:33;99451.94;;;14.96;100.00
75157;BME280;63736;50.076;8.198;2023-05-07T04:11:58;99445.69;;;14.95;100.00
75157;BME280;63736;50.076;8.198;2023-05-07T04:14:23;99449.22;;;14.96;100.00
75157;BME280;63736;50.076;8.198;2023-05-07T04:16:48;99454.44;;;14.97;100.00
75157;BME280;63736;50.076;8.198;2023-05-07T04:19:14;99460.66;;;14.98;100.00
75157;BME280;63736;50.076;8.198;2023-05-07T04:21:39;99463.19;;;14.99;100.00
75157;BME280;63736;50.076;8.198;2023-05-07T04:24:05;99464.03;;;15.00;100.00
75157;BME280;63736;50.076;8.198;2023-05-07T04:26:30;99458.50;;;15.01;100.00
75157;BME280;63736;50.076;8.198;2023-05-07T04:28:56;99466.41;;;15.03;100.00
75157;BME280;63736;50.076;8.198;2023-05-07T04:31:24;99471.47;;;15.06;100.00
75157;BME280;63736;50.076;8.198;2023-05-07T04:33:50;99473.00;;;15.09;100.00
75157;BME280;63736;50.076;8.198;2023-05-07T04:36:15;99475.53;;;15.10;100.00
75157;BME280;63736;50.076;8.198;2023-05-07T04:38:41;99473.69;;;15.11;100.00
75157;BME280;63736;50.076;8.198;2023-05-07T04:41:06;99470.81;;;15.12;100.00
75157;BME280;63736;50.076;8.198;2023-05-07T04:43:32;99458.06;;;15.14;100.00
75157;BME280;63736;50.076;8.198;2023-05-07T04:45:57;99467.19;;;15.22;100.00
75157;BME280;63736;50.076;8.198;2023-05-07T04:48:22;99468.56;;;15.26;100.00
75157;BME280;63736;50.076;8.198;2023-05-07T04:50:49;99472.09;;;15.34;100.00
75157;BME280;63736;50.076;8.198;2023-05-07T04:53:14;99477.56;;;15.43;100.00
75157;BME280;63736;50.076;8.198;2023-05-07T04:55:40;99469.84;;;15.48;100.00
75157;BME280;63736;50.076;8.198;2023-05-07T04:58:05;99474.25;;;15.57;100.00
75157;BME280;63736;50.076;8.198;2023-05-07T05:00:30;99470.41;;;15.68;100.00
75157;BME280;63736;50.076;8.198;2023-05-07T05:02:56;99479.34;;;15.77;99.03
75157;BME280;63736;50.076;8.198;2023-05-07T05:05:21;99474.19;;;15.92;97.76
75157;BME280;63736;50.076;8.198;2023-05-07T05:07:47;99479.78;;;16.15;96.39
75157;BME280;63736;50.076;8.198;2023-05-07T05:10:12;99475.97;;;16.26;94.49
75157;BME280;63736;50.076;8.198;2023-05-07T05:12:37;99487.41;;;16.28;92.88
75157;BME280;63736;50.076;8.198;2023-05-07T05:15:03;99481.00;;;16.29;92.29
75157;BME280;63736;50.076;8.198;2023-05-07T05:17:29;99491.78;;;16.29;92.12
75157;BME280;63736;50.076;8.198;2023-05-07T05:19:54;99490.78;;;16.30;92.07
75157;BME280;63736;50.076;8.198;2023-05-07T05:22:20;99497.53;;;16.34;91.86
75157;BME280;63736;50.076;8.198;2023-05-07T05:24:45;99493.66;;;16.37;91.44
75157;BME280;63736;50.076;8.198;2023-05-07T05:27:10;99497.19;;;16.45;91.32
75157;BME280;63736;50.076;8.198;2023-05-07T05:29:35;99498.19;;;16.52;91.08
75157;BME280;63736;50.076;8.198;2023-05-07T05:32:01;99497.19;;;16.62;90.63
75157;BME280;63736;50.076;8.198;2023-05-07T05:34:26;99500.88;;;16.77;90.01
75157;BME280;63736;50.076;8.198;2023-05-07T05:36:52;99505.47;;;16.93;88.36
75157;BME280;63736;50.076;8.198;2023-05-07T05:39:17;99507.13;;;17.11;87.12
75157;BME280;63736;50.076;8.198;2023-05-07T05:41:43;99503.84;;;17.32;85.67
75157;BME280;63736;50.076;8.198;2023-05-07T05:44:08;99502.63;;;17.51;83.82
75157;BME280;63736;50.076;8.198;2023-05-07T05:46:34;99504.41;;;17.67;82.17
75157;BME280;63736;50.076;8.198;2023-05-07T05:48:59;99501.44;;;17.85;80.37
75157;BME280;63736;50.076;8.198;2023-05-07T05:51:25;99503.25;;;18.01;79.08
75157;BME280;63736;50.076;8.198;2023-05-07T05:53:51;99500.06;;;18.21;77.71
75157;BME280;63736;50.076;8.198;2023-05-07T05:56:16;99501.28;;;18.41;74.98
75157;BME280;63736;50.076;8.198;2023-05-07T05:58:42;99509.09;;;18.59;73.38
75157;BME280;63736;50.076;8.198;2023-05-07T06:01:09;99504.34;;;18.85;71.79
75157;BME280;63736;50.076;8.198;2023-05-07T06:03:36;99499.66;;;19.31;70.29
75157;BME280;63736;50.076;8.198;2023-05-07T06:06:01;99490.03;;;20.10;66.31
75157;BME280;63736;50.076;8.198;2023-05-07T06:08:30;99493.66;;;21.11;62.39
75157;BME280;63736;50.076;8.198;2023-05-07T06:10:56;99498.66;;;22.46;57.88
75157;BME280;63736;50.076;8.198;2023-05-07T06:13:21;99491.31;;;23.92;52.08
75157;BME280;63736;50.076;8.198;2023-05-07T06:15:47;99492.22;;;25.07;46.63
75157;BME280;63736;50.076;8.198;2023-05-07T06:18:13;99495.03;;;26.12;43.30
75157;BME280;63736;50.076;8.198;2023-05-07T06:20:38;99499.19;;;26.99;40.79
75157;BME280;63736;50.076;8.198;2023-05-07T06:23:04;99500.16;;;27.52;38.88
75157;BME280;63736;50.076;8.198;2023-05-07T06:25:29;99506.81;;;27.33;38.53
75157;BME280;63736;50.076;8.198;2023-05-07T06:27:54;99500.03;;;27.00;39.44
75157;BME280;63736;50.076;8.198;2023-05-07T06:30:20;99499.53;;;26.37;38.06
75157;BME280;63736;50.076;8.198;2023-05-07T06:32:45;99506.00;;;25.94;38.83
75157;BME280;63736;50.076;8.198;2023-05-07T06:35:10;99507.84;;;25.63;39.05
75157;BME280;63736;50.076;8.198;2023-05-07T06:37:35;99500.13;;;25.60;38.95
75157;BME280;63736;50.076;8.198;2023-05-07T06:40:04;99514.69;;;25.10;39.12
75157;BME280;63736;50.076;8.198;2023-05-07T06:42:29;99512.16;;;24.25;40.63
75157;BME280;63736;50.076;8.198;2023-05-07T06:44:55;99516.44;;;23.42;42.13
75157;BME280;63736;50.076;8.198;2023-05-07T06:47:20;99511.66;;;22.98;43.86
75157;BME280;63736;50.076;8.198;2023-05-07T06:49:45;99515.00;;;22.66;44.95
75157;BME280;63736;50.076;8.198;2023-05-07T06:52:10;99516.25;;;22.50;45.95
75157;BME280;63736;50.076;8.198;2023-05-07T06:54:36;99517.81;;;22.18;46.20
75157;BME280;63736;50.076;8.198;2023-05-07T06:57:01;99513.75;;;21.87;46.99
75157;BME280;63736;50.076;8.198;2023-05-07T06:59:26;99520.59;;;21.76;47.86
75157;BME280;63736;50.076;8.198;2023-05-07T07:01:51;99520.75;;;21.68;48.29
75157;BME280;63736;50.076;8.198;2023-05-07T07:04:17;99517.56;;;21.57;47.76
75157;BME280;63736;50.076;8.198;2023-05-07T07:06:42;99528.56;;;21.42;48.52
75157;BME280;63736;50.076;8.198;2023-05-07T07:09:07;99519.91;;;21.32;48.64
75157;BME280;63736;50.076;8.198;2023-05-07T07:11:33;99526.34;;;21.24;49.31
75157;BME280;63736;50.076;8.198;2023-05-07T07:13:58;99535.03;;;21.13;49.84
75157;BME280;63736;50.076;8.198;2023-05-07T07:16:24;99530.75;;;20.97;50.53
75157;BME280;63736;50.076;8.198;2023-05-07T07:18:49;99530.13;;;20.73;50.57
75157;BME280;63736;50.076;8.198;2023-05-07T07:21:14;99525.38;;;20.60;51.42
75157;BME280;63736;50.076;8.198;2023-05-07T07:23:39;99523.91;;;20.58;51.68
75157;BME280;63736;50.076;8.198;2023-05-07T07:26:05;99520.97;;;20.59;51.88
75157;BME280;63736;50.076;8.198;2023-05-07T07:28:31;99521.91;;;20.67;52.11
75157;BME280;63736;50.076;8.198;2023-05-07T07:30:57;99523.56;;;20.68;52.21
75157;BME280;63736;50.076;8.198;2023-05-07T07:33:22;99528.44;;;20.72;51.86
75157;BME280;63736;50.076;8.198;2023-05-07T07:35:47;99522.28;;;20.63;51.84
75157;BME280;63736;50.076;8.198;2023-05-07T07:38:12;99529.97;;;20.60;52.00
75157;BME280;63736;50.076;8.198;2023-05-07T07:40:38;99523.97;;;20.64;52.32
75157;BME280;63736;50.076;8.198;2023-05-07T07:43:04;99534.06;;;20.71;52.35
75157;BME280;63736;50.076;8.198;2023-05-07T07:45:30;99526.75;;;20.71;52.41
75157;BME280;63736;50.076;8.198;2023-05-07T07:47:55;99527.41;;;20.73;52.54
75157;BME280;63736;50.076;8.198;2023-05-07T07:50:20;99527.41;;;20.73;52.92
75157;BME280;63736;50.076;8.198;2023-05-07T07:52:45;99526.19;;;20.76;53.00
75157;BME280;63736;50.076;8.198;2023-05-07T07:55:11;99531.63;;;20.76;53.13
75157;BME280;63736;50.076;8.198;2023-05-07T07:57:37;99532.44;;;20.76;53.46
75157;BME280;63736;50.076;8.198;2023-05-07T08:00:03;99530.03;;;20.88;53.10
75157;BME280;63736;50.076;8.198;2023-05-07T08:02:29;99536.63;;;21.01;53.16
75157;BME280;63736;50.076;8.198;2023-05-07T08:04:54;99532.09;;;21.15;53.31
75157;BME280;63736;50.076;8.198;2023-05-07T08:07:20;99537.03;;;21.33;52.95
75157;BME280;63736;50.076;8.198;2023-05-07T08:09:47;99531.75;;;21.53;52.30
75157;BME280;63736;50.076;8.198;2023-05-07T08:12:13;99535.03;;;21.76;51.78
75157;BME280;63736;50.076;8.198;2023-05-07T08:14:38;99531.56;;;21.96;50.72
75157;BME280;63736;50.076;8.198;2023-05-07T08:17:04;99531.38;;;22.04;49.83
75157;BME280;63736;50.076;8.198;2023-05-07T08:19:29;99539.97;;;22.15;49.31
75157;BME280;63736;50.076;8.198;2023-05-07T08:21:54;99545.06;;;22.31;48.80
75157;BME280;63736;50.076;8.198;2023-05-07T08:24:20;99548.91;;;22.50;47.91
75157;BME280;63736;50.076;8.198;2023-05-07T08:26:46;99541.41;;;22.66;47.55
75157;BME280;63736;50.076;8.198;2023-05-07T08:29:11;99545.38;;;22.83;47.21
75157;BME280;63736;50.076;8.198;2023-05-07T08:31:36;99537.00;;;23.05;46.44
75157;BME280;63736;50.076;8.198;2023-05-07T08:34:03;99538.06;;;23.17;45.34
75157;BME280;63736;50.076;8.198;2023-05-07T08:36:29;99537.63;;;23.34;44.88
75157;BME280;63736;50.076;8.198;2023-05-07T08:38:54;99544.06;;;23.66;45.10
75157;BME280;63736;50.076;8.198;2023-05-07T08:41:20;99535.34;;;24.03;42.99
75157;BME280;63736;50.076;8.198;2023-05-07T08:43:48;99528.28;;;25.16;41.30
75157;BME280;63736;50.076;8.198;2023-05-07T08:46:19;99538.16;;;26.17;38.05
75157;BME280;63736;50.076;8.198;2023-05-07T08:48:44;99532.16;;;26.69;37.19
75157;BME280;63736;50.076;8.198;2023-05-07T08:51:15;99542.34;;;27.28;35.58
75157;BME280;63736;50.076;8.198;2023-05-07T08:53:41;99536.81;;;27.87;35.16
75157;BME280;63736;50.076;8.198;2023-05-07T08:56:08;99542.84;;;28.13;34.76
75157;BME280;63736;50.076;8.198;2023-05-07T08:58:33;99546.34;;;28.37;34.26
75157;BME280;63736;50.076;8.198;2023-05-07T09:01:01;99537.22;;;28.48;33.84
75157;BME280;63736;50.076;8.198;2023-05-07T09:03:28;99546.25;;;28.32;33.75
75157;BME280;63736;50.076;8.198;2023-05-07T09:05:53;99547.25;;;28.43;34.07
75157;BME280;63736;50.076;8.198;2023-05-07T09:08:24;99547.53;;;28.58;33.47
75157;BME280;63736;50.076;8.198;2023-05-07T09:10:50;99548.41;;;28.59;33.78
75157;BME280;63736;50.076;8.198;2023-05-07T09:13:15;99544.59;;;28.48;34.01
75157;BME280;63736;50.076;8.198;2023-05-07T09:15:40;99545.94;;;28.74;33.34
75157;BME280;63736;50.076;8.198;2023-05-07T09:18:06;99538.53;;;28.92;32.66
75157;BME280;63736;50.076;8.198;2023-05-07T09:20:36;99539.25;;;29.77;31.79
75157;BME280;63736;50.076;8.198;2023-05-07T09:23:01;99540.94;;;30.01;31.09
75157;BME280;63736;50.076;8.198;2023-05-07T09:25:31;99547.09;;;30.08;30.47
75157;BME280;63736;50.076;8.198;2023-05-07T09:27:57;99542.59;;;30.02;30.91
75157;BME280;63736;50.076;8.198;2023-05-07T09:30:23;99540.44;;;29.42;31.29
75157;BME280;63736;50.076;8.198;2023-05-07T09:32:51;99542.53;;;29.96;30.77
75157;BME280;63736;50.076;8.198;2023-05-07T09:35:17;99542.22;;;30.15;30.94
75157;BME280;63736;50.076;8.198;2023-05-07T09:37:43;99543.56;;;30.12;31.01
75157;BME280;63736;50.076;8.198;2023-05-07T09:40:20;99541.06;;;30.11;30.99
75157;BME280;63736;50.076;8.198;2023-05-07T09:42:46;99549.00;;;30.07;31.49
75157;BME280;63736;50.076;8.198;2023-05-07T09:45:12;99548.63;;;29.98;31.49
75157;BME280;63736;50.076;8.198;2023-05-07T09:47:38;99540.59;;;30.19;31.46
75157;BME280;63736;50.076;8.198;2023-05-07T09:50:06;99543.44;;;30.52;30.67
75157;BME280;63736;50.076;8.198;2023-05-07T09:52:33;99547.81;;;30.47;30.94
75157;BME280;63736;50.076;8.198;2023-05-07T09:55:00;99544.50;;;30.23;30.59
75157;BME280;63736;50.076;8.198;2023-05-07T09:57:27;99540.63;;;29.97;31.20
75157;BME280;63736;50.076;8.198;2023-05-07T09:59:56;99542.31;;;29.59;31.27
75157;BME280;63736;50.076;8.198;2023-05-07T10:02:23;99538.44;;;29.38;32.23
75157;BME280;63736;50.076;8.198;2023-05-07T10:04:50;99531.53;;;29.01;32.29
75157;BME280;63736;50.076;8.198;2023-05-07T10:07:16;99525.59;;;29.09;32.28
75157;BME280;63736;50.076;8.198;2023-05-07T10:09:42;99529.28;;;29.15;32.58
75157;BME280;63736;50.076;8.198;2023-05-07T10:12:09;99532.69;;;28.88;32.79
75157;BME280;63736;50.076;8.198;2023-05-07T10:14:35;99522.59;;;28.77;32.91
75157;BME280;63736;50.076;8.198;2023-05-07T10:17:02;99526.84;;;28.84;32.76
75157;BME280;63736;50.076;8.198;2023-05-07T10:19:27;99531.63;;;28.89;33.32
75157;BME280;63736;50.076;8.198;2023-05-07T10:21:56;99531.03;;;28.41;33.65
75157;BME280;63736;50.076;8.198;2023-05-07T10:24:35;99532.13;;;27.99;34.30
75157;BME280;63736;50.076;8.198;2023-05-07T10:27:04;99536.25;;;27.73;35.11
75157;BME280;63736;50.076;8.198;2023-05-07T10:30:07;99536.50;;;27.12;35.89
75157;BME280;63736;50.076;8.198;2023-05-07T10:35:07;99536.81;;;26.38;36.62
75157;BME280;63736;50.076;8.198;2023-05-07T10:37:35;99531.69;;;26.30;36.96
75157;BME280;63736;50.076;8.198;2023-05-07T10:40:01;99535.06;;;26.13;37.67
75157;BME280;63736;50.076;8.198;2023-05-07T10:42:27;99538.75;;;26.19;38.03
75157;BME280;63736;50.076;8.198;2023-05-07T10:44:52;99533.13;;;26.32;37.99
75157;BME280;63736;50.076;8.198;2023-05-07T10:47:18;99538.84;;;26.43;37.59
75157;BME280;63736;50.076;8.198;2023-05-07T10:52:19;99536.88;;;26.19;37.76
75157;BME280;63736;50.076;8.198;2023-05-07T10:54:45;99526.66;;;26.27;37.63
75157;BME280;63736;50.076;8.198;2023-05-07T10:57:33;99527.63;;;26.32;37.79
75157;BME280;63736;50.076;8.198;2023-05-07T11:00:01;99534.72;;;26.03;37.76
75157;BME280;63736;50.076;8.198;2023-05-07T11:05:26;99536.50;;;25.97;37.88
75157;BME280;63736;50.076;8.198;2023-05-07T11:08:10;99523.25;;;25.94;37.84
75157;BME280;63736;50.076;8.198;2023-05-07T11:10:55;99526.69;;;25.71;38.59
75157;BME280;63736;50.076;8.198;2023-05-07T11:13:40;99527.38;;;25.66;38.90
75157;BME280;63736;50.076;8.198;2023-05-07T11:16:19;99525.56;;;25.60;38.58
75157;BME280;63736;50.076;8.198;2023-05-07T11:18:53;99529.81;;;25.37;38.90
75157;BME280;63736;50.076;8.198;2023-05-07T11:21:38;99527.16;;;25.49;38.78
75157;BME280;63736;50.076;8.198;2023-05-07T11:24:09;99529.13;;;25.61;38.98
75157;BME280;63736;50.076;8.198;2023-05-07T11:26:49;99528.84;;;25.69;38.64
75157;BME280;63736;50.076;8.198;2023-05-07T11:29:19;99522.47;;;25.75;38.50
75157;BME280;63736;50.076;8.198;2023-05-07T11:31:49;99516.81;;;25.88;38.08
75157;BME280;63736;50.076;8.198;2023-05-07T11:34:20;99524.78;;;25.90;37.80
75157;BME280;63736;50.076;8.198;2023-05-07T11:36:47;99519.63;;;25.82;38.09
75157;BME280;63736;50.076;8.198;2023-05-07T11:39:25;99517.69;;;26.01;38.21
75157;BME280;63736;50.076;8.198;2023-05-07T11:41:50;99510.31;;;26.20;37.83
75157;BME280;63736;50.076;8.198;2023-05-07T11:44:16;99514.53;;;26.34;37.59
75157;BME280;63736;50.076;8.198;2023-05-07T11:46:43;99507.16;;;26.35;36.94
75157;BME280;63736;50.076;8.198;2023-05-07T11:49:09;99508.09;;;26.29;36.47
75157;BME280;63736;50.076;8.198;2023-05-07T11:51:38;99508.09;;;26.29;36.89
75157;BME280;63736;50.076;8.198;2023-05-07T11:54:04;99511.41;;;26.31;36.91
75157;BME280;63736;50.076;8.198;2023-05-07T11:56:34;99510.47;;;26.25;36.79
75157;BME280;63736;50.076;8.198;2023-05-07T11:59:00;99510.06;;;26.21;36.43
75157;BME280;63736;50.076;8.198;2023-05-07T12:01:26;99511.66;;;26.29;36.60
75157;BME280;63736;50.076;8.198;2023-05-07T12:03:51;99507.47;;;26.27;36.66
75157;BME280;63736;50.076;8.198;2023-05-07T12:06:17;99512.72;;;26.28;36.67
75157;BME280;63736;50.076;8.198;2023-05-07T12:08:43;99500.59;;;26.36;36.83
75157;BME280;63736;50.076;8.198;2023-05-07T12:11:13;99506.56;;;26.33;36.59
75157;BME280;63736;50.076;8.198;2023-05-07T12:13:38;99503.53;;;26.22;36.79
75157;BME280;63736;50.076;8.198;2023-05-07T12:16:05;99504.47;;;26.16;36.85
75157;BME280;63736;50.076;8.198;2023-05-07T12:18:31;99504.59;;;26.21;36.94
75157;BME280;63736;50.076;8.198;2023-05-07T12:20:56;99507.63;;;26.32;36.78
75157;BME280;63736;50.076;8.198;2023-05-07T12:23:22;99497.56;;;26.56;36.59
75157;BME280;63736;50.076;8.198;2023-05-07T12:25:48;99518.28;;;26.52;36.31
75157;BME280;63736;50.076;8.198;2023-05-07T12:28:17;99499.56;;;26.49;35.90
75157;BME280;63736;50.076;8.198;2023-05-07T12:30:45;99493.19;;;26.67;35.72
75157;BME280;63736;50.076;8.198;2023-05-07T12:33:11;99498.59;;;26.85;35.88
75157;BME280;63736;50.076;8.198;2023-05-07T12:35:38;99498.47;;;26.80;35.77
75157;BME280;63736;50.076;8.198;2023-05-07T12:38:07;99494.03;;;26.67;36.01
75157;BME280;63736;50.076;8.198;2023-05-07T12:40:38;99501.59;;;26.42;36.54
75157;BME280;63736;50.076;8.198;2023-05-07T12:43:04;99502.34;;;26.18;36.92
75157;BME280;63736;50.076;8.198;2023-05-07T12:45:30;99500.16;;;26.09;36.98
75157;BME280;63736;50.076;8.198;2023-05-07T12:47:55;99507.97;;;25.86;37.03
75157;BME280;63736;50.076;8.198;2023-05-07T12:50:21;99496.53;;;25.59;37.16
75157;BME280;63736;50.076;8.198;2023-05-07T12:52:49;99500.84;;;25.67;37.41
75157;BME280;63736;50.076;8.198;2023-05-07T12:55:15;99492.56;;;25.73;37.22
75157;BME280;63736;50.076;8.198;2023-05-07T12:57:43;99498.28;;;25.72;37.85
75157;BME280;63736;50.076;8.198;2023-05-07T13:00:10;99495.84;;;25.64;38.26
75157;BME280;63736;50.076;8.198;2023-05-07T13:02:40;99501.94;;;25.47;38.58